Time;durP1;ratioP1;P1;durP2;ratioP2;P2;SDS_P1;SDS_P2;PMS_P1;PMS_P2;Temp;Humidity;BMP_temperature;BMP_pressure;BME280_temperature;BME280_humidity;BME280_pressure;Samples;Min_cycle;Max_cycle;Signal;HPM_P1;HPM_P2
2022/10/17 00:01:51;;;;;;;6.85;2.88;;;;;;;15.44;82.01;101060.53;4197183;28;20033;-64
2022/10/17 00:03:54;;;;;;;5.10;3.30;;;;;;;15.41;82.26;101065.75;4182594;28;20510;-64
2022/10/17 00:05:57;;;;;;;9.93;3.13;;;;;;;15.42;81.78;101064.00;4183199;28;20041;-64
2022/10/17 00:08:00;;;;;;;6.35;3.22;;;;;;;15.41;82.00;101070.13;4189734;28;20079;-64
2022/10/17 00:10:03;;;;;;;8.05;3.25;;;;;;;15.40;82.24;101063.13;4197672;28;20044;-64
2022/10/17 00:12:06;;;;;;;6.97;3.47;;;;;;;15.40;81.90;101073.59;4198098;28;20037;-64
2022/10/17 00:14:09;;;;;;;7.50;2.88;;;;;;;15.40;82.09;101073.59;4188448;28;20033;-64
2022/10/17 00:16:12;;;;;;;6.13;2.83;;;;;;;15.41;82.10;101080.59;4189963;28;20047;-64
2022/10/17 00:18:16;;;;;;;4.18;2.75;;;;;;;15.39;82.27;101074.47;4197324;28;20044;-64
2022/10/17 00:20:19;;;;;;;8.00;3.13;;;;;;;15.39;82.31;101077.09;4183113;28;20479;-64
2022/10/17 00:22:22;;;;;;;4.30;2.40;;;;;;;15.40;82.76;101074.47;4190229;28;20149;-64
2022/10/17 00:24:25;;;;;;;6.47;2.92;;;;;;;15.40;82.58;101078.84;4195650;28;20029;-64
2022/10/17 00:26:28;;;;;;;4.45;2.95;;;;;;;15.37;82.64;101079.69;4197198;28;20544;-63
2022/10/17 00:28:32;;;;;;;3.00;2.45;;;;;;;15.36;82.35;101073.59;4198745;28;20410;-63
2022/10/17 00:30:36;;;;;;;5.93;3.10;;;;;;;15.39;82.61;101088.47;4197703;28;20037;-64
2022/10/17 00:32:39;;;;;;;9.15;3.30;;;;;;;15.40;82.52;101091.94;4183459;28;20147;-63
2022/10/17 00:34:43;;;;;;;7.53;2.88;;;;;;;15.40;82.73;101095.44;4169444;28;20044;-63
2022/10/17 00:36:46;;;;;;;5.28;2.67;;;;;;;15.39;82.53;101104.19;4197193;28;20509;-64
2022/10/17 00:38:53;;;;;;;6.03;3.20;;;;;;;15.40;82.58;101105.03;4173230;28;20045;-64
2022/10/17 00:40:55;;;;;;;4.68;2.83;;;;;;;15.41;82.57;101098.94;4181603;28;20045;-64
2022/10/17 00:42:58;;;;;;;7.15;2.95;;;;;;;15.40;82.57;101103.28;4198064;28;20090;-64
2022/10/17 00:45:12;;;;;;;7.93;3.38;;;;;;;15.41;82.09;101102.44;4196085;28;20445;-64
2022/10/17 00:47:20;;;;;;;6.78;3.22;;;;;;;15.40;82.19;101102.44;4191990;28;20045;-64
2022/10/17 00:49:26;;;;;;;7.03;2.92;;;;;;;15.39;82.39;101108.53;4189369;28;20486;-64
2022/10/17 00:51:36;;;;;;;7.57;2.90;;;;;;;15.38;82.13;101106.81;4188048;28;20273;-64
2022/10/17 00:53:40;;;;;;;4.90;2.50;;;;;;;15.33;82.06;101110.25;4183753;28;20454;-64
2022/10/17 00:55:48;;;;;;;6.85;2.72;;;;;;;15.27;82.76;101104.97;4188949;28;20491;-64
2022/10/17 00:57:52;;;;;;;4.13;2.85;;;;;;;15.24;82.50;101109.34;4181390;28;20075;-64
2022/10/17 00:59:57;;;;;;;5.22;2.90;;;;;;;15.21;82.62;101104.94;4191149;28;20040;-64
2022/10/17 01:02:03;;;;;;;6.05;3.15;;;;;;;15.22;82.73;101111.09;4197456;28;20440;-64
2022/10/17 01:04:06;;;;;;;7.15;3.28;;;;;;;15.22;83.12;101104.09;4178644;28;20044;-64
2022/10/17 01:06:09;;;;;;;5.78;2.80;;;;;;;15.23;82.79;101107.56;4186116;28;20468;-64
2022/10/17 01:08:14;;;;;;;7.10;2.30;;;;;;;15.26;82.75;101104.97;4193766;28;20029;-64
2022/10/17 01:10:17;;;;;;;4.47;2.95;;;;;;;15.24;82.33;101101.47;4197450;28;20032;-64
2022/10/17 01:12:24;;;;;;;6.20;2.70;;;;;;;15.26;82.53;101108.47;4197744;28;20040;-63
2022/10/17 01:14:32;;;;;;;3.80;2.80;;;;;;;15.24;82.35;101102.34;4196900;28;20461;-63
2022/10/17 01:16:47;;;;;;;7.38;3.22;;;;;;;15.25;82.40;101098.84;4198831;28;20040;-64
2022/10/17 01:18:59;;;;;;;8.68;3.10;;;;;;;15.22;82.34;101109.31;4180999;28;20107;-64
2022/10/17 01:21:32;;;;;;;5.35;2.80;;;;;;;15.22;82.39;101103.22;4197626;28;20127;-64
2022/10/17 01:24:14;;;;;;;4.60;2.58;;;;;;;15.18;81.58;101103.19;4171753;28;20053;-64
2022/10/17 01:26:26;;;;;;;5.72;3.10;;;;;;;15.18;81.70;101103.19;4181162;28;20049;-64
2022/10/17 01:29:00;;;;;;;6.68;3.78;;;;;;;15.16;81.67;101110.16;4182101;28;20519;-64
2022/10/17 01:31:10;;;;;;;7.57;2.80;;;;;;;15.11;82.36;101111.00;4177947;28;20045;-64
2022/10/17 01:33:17;;;;;;;5.63;3.10;;;;;;;15.11;82.36;101103.16;4181651;28;20399;-64
2022/10/17 01:35:26;;;;;;;4.35;2.70;;;;;;;15.11;81.67;101106.66;4183064;28;20040;-64
2022/10/17 01:37:33;;;;;;;6.82;3.13;;;;;;;15.09;82.12;101103.13;4185422;28;20380;-64
2022/10/17 01:39:42;;;;;;;4.03;2.78;;;;;;;15.10;82.06;101109.22;4194316;28;20068;-64
2022/10/17 01:41:55;;;;;;;6.53;3.03;;;;;;;15.09;81.89;101110.13;4197023;28;20041;-63
2022/10/17 01:44:03;;;;;;;6.40;2.97;;;;;;;15.09;82.54;101107.50;4182899;28;20033;-64
2022/10/17 01:46:13;;;;;;;4.13;2.95;;;;;;;15.10;82.10;101109.22;4188300;28;20068;-64
2022/10/17 01:48:19;;;;;;;6.05;2.72;;;;;;;15.07;81.76;101101.38;4196973;28;20048;-64
2022/10/17 01:50:28;;;;;;;7.78;2.90;;;;;;;15.07;82.14;101097.03;4196206;28;20048;-64
2022/10/17 01:52:38;;;;;;;6.78;3.22;;;;;;;15.05;81.56;101095.25;4196780;28;20041;-64
2022/10/17 01:54:44;;;;;;;6.43;2.92;;;;;;;15.03;81.81;101099.63;4180769;28;20534;-64
2022/10/17 01:56:49;;;;;;;4.18;2.85;;;;;;;15.03;81.58;101095.25;4180415;28;20045;-64
2022/10/17 01:58:57;;;;;;;10.40;2.50;;;;;;;14.98;81.61;101092.59;4170090;28;20068;-64
2022/10/17 02:01:02;;;;;;;3.65;2.33;;;;;;;14.97;82.28;101098.69;4189943;28;20037;-64
2022/10/17 02:03:12;;;;;;;9.70;3.10;;;;;;;14.97;81.74;101097.84;4193991;28;20037;-63
2022/10/17 02:05:17;;;;;;;5.20;2.90;;;;;;;14.96;82.20;101098.69;4179853;28;20037;-64
2022/10/17 02:07:20;;;;;;;6.85;3.10;;;;;;;14.96;81.89;101096.94;4187439;28;20037;-64
2022/10/17 02:09:25;;;;;;;5.72;3.25;;;;;;;14.97;81.93;101101.31;4169414;28;20041;-64
2022/10/17 02:11:28;;;;;;;4.82;2.95;;;;;;;14.97;82.38;101105.69;4194697;28;20044;-65
2022/10/17 02:13:45;;;;;;;4.85;2.80;;;;;;;15.00;81.21;101101.34;4186430;28;20830;-64
2022/10/17 02:16:04;;;;;;;4.00;2.65;;;;;;;14.99;81.72;101099.56;4193989;28;20047;-64
2022/10/17 02:18:22;;;;;;;11.30;3.20;;;;;;;14.97;81.77;101096.09;4166893;28;20514;-64
2022/10/17 02:20:31;;;;;;;6.13;2.83;;;;;;;14.95;81.82;101096.94;4193190;28;20040;-64
2022/10/17 02:22:41;;;;;;;5.85;3.15;;;;;;;14.97;81.88;101088.22;4180047;28;20041;-64
2022/10/17 02:24:52;;;;;;;6.65;3.20;;;;;;;14.95;81.82;101095.22;4178998;28;20406;-64
2022/10/17 02:27:04;;;;;;;4.13;2.00;;;;;;;14.94;82.17;101095.22;4197756;28;20036;-64
2022/10/17 02:29:13;;;;;;;5.10;3.03;;;;;;;14.93;82.34;101096.06;4196396;28;20498;-64
2022/10/17 02:31:23;;;;;;;5.18;2.80;;;;;;;14.92;82.26;101095.19;4166185;28;20492;-64
2022/10/17 02:33:31;;;;;;;7.88;2.85;;;;;;;14.92;82.42;101097.81;4181426;28;20094;-64
2022/10/17 02:35:40;;;;;;;7.00;2.85;;;;;;;14.91;82.03;101090.81;4204629;28;20040;-63
2022/10/17 02:37:47;;;;;;;5.18;2.30;;;;;;;14.88;82.10;101093.41;4193769;28;20047;-63
2022/10/17 02:39:51;;;;;;;4.57;3.05;;;;;;;14.90;81.90;101101.28;4190188;28;20502;-63
2022/10/17 02:41:58;;;;;;;5.45;2.63;;;;;;;14.90;82.52;101089.06;4179669;28;20044;-64
2022/10/17 02:44:04;;;;;;;5.78;2.50;;;;;;;14.90;82.68;101099.53;4191131;28;20430;-64
2022/10/17 02:46:07;;;;;;;4.65;2.50;;;;;;;14.87;82.70;101096.88;4189056;28;20028;-64
2022/10/17 02:48:16;;;;;;;7.90;3.03;;;;;;;14.90;81.96;101099.53;4187848;28;20041;-64
2022/10/17 02:50:24;;;;;;;8.38;2.90;;;;;;;14.88;81.91;101090.81;4183617;28;20564;-64
2022/10/17 02:52:32;;;;;;;6.15;2.45;;;;;;;14.88;82.29;101103.00;4181157;28;20498;-64
2022/10/17 02:54:40;;;;;;;4.55;2.80;;;;;;;14.87;82.19;101086.41;4194789;28;20082;-64
2022/10/17 02:56:50;;;;;;;4.50;3.20;;;;;;;14.87;81.84;101094.28;4196246;28;20044;-64
2022/10/17 02:58:57;;;;;;;4.28;2.78;;;;;;;14.84;81.72;101096.88;4195685;28;20040;-64
2022/10/17 03:01:00;;;;;;;4.45;2.75;;;;;;;14.83;81.43;101098.63;4193653;28;20032;-64
2022/10/17 03:03:19;;;;;;;4.30;3.10;;;;;;;14.82;81.46;101093.34;4177087;28;20049;-64
2022/10/17 03:05:25;;;;;;;5.03;2.60;;;;;;;14.80;81.66;101097.72;4179922;28;20088;-64
2022/10/17 03:07:28;;;;;;;8.40;3.05;;;;;;;14.80;81.41;101097.72;4180858;28;20078;-64
2022/10/17 03:09:31;;;;;;;5.32;2.80;;;;;;;14.79;81.95;101099.47;4195801;28;20032;-64
2022/10/17 03:11:33;;;;;;;6.70;2.70;;;;;;;14.78;82.18;101097.72;4189190;28;20044;-64
2022/10/17 03:13:36;;;;;;;10.38;2.78;;;;;;;14.79;81.74;101095.94;4185038;28;20036;-64
2022/10/17 03:15:42;;;;;;;3.47;2.45;;;;;;;14.77;82.05;101098.56;4188591;28;20496;-64
2022/10/17 03:17:45;;;;;;;4.45;2.28;;;;;;;14.75;82.14;101099.44;4187317;28;20037;-64
2022/10/17 03:19:53;;;;;;;7.45;2.97;;;;;;;14.74;81.45;101102.91;4191954;28;20044;-64
2022/10/17 03:21:57;;;;;;;5.82;2.80;;;;;;;14.76;82.25;101109.03;4179339;28;20434;-64
2022/10/17 03:24:00;;;;;;;6.85;2.53;;;;;;;14.73;81.75;101115.09;4178570;28;20411;-64
2022/10/17 03:26:04;;;;;;;5.63;2.78;;;;;;;14.74;81.93;101109.00;4162582;28;20091;-64
2022/10/17 03:28:09;;;;;;;3.42;2.58;;;;;;;14.74;82.12;101111.63;4162697;28;20045;-63
2022/10/17 03:30:12;;;;;;;3.53;2.50;;;;;;;14.74;82.23;101116.88;4169190;28;20102;-63
2022/10/17 03:32:15;;;;;;;5.05;2.78;;;;;;;14.74;81.93;101116.88;4173057;28;20048;-63
2022/10/17 03:34:18;;;;;;;5.22;2.85;;;;;;;14.75;82.33;101110.78;4178454;28;20064;-64
2022/10/17 03:36:21;;;;;;;5.55;2.75;;;;;;;14.74;82.44;101114.25;4162670;28;20038;-63
2022/10/17 03:38:26;;;;;;;4.35;2.33;;;;;;;14.76;82.40;101116.88;4166745;28;20041;-64
2022/10/17 03:40:29;;;;;;;8.15;2.63;;;;;;;14.75;82.47;101120.38;4190765;28;20087;-64
2022/10/17 03:42:32;;;;;;;5.18;2.75;;;;;;;14.75;82.59;101115.13;4190248;28;20479;-64
2022/10/17 03:44:35;;;;;;;5.47;2.70;;;;;;;14.76;82.73;101122.09;4176026;28;20128;-65
2022/10/17 03:46:39;;;;;;;9.43;3.30;;;;;;;14.74;82.87;101119.47;4184584;28;20045;-64
2022/10/17 03:48:42;;;;;;;6.10;2.40;;;;;;;14.75;82.63;101120.38;4186370;28;20044;-64
2022/10/17 03:50:44;;;;;;;7.32;3.00;;;;;;;14.69;82.36;101125.53;4184685;28;20063;-64
2022/10/17 03:52:48;;;;;;;3.75;2.63;;;;;;;14.69;82.69;101125.53;4187223;28;20046;-64
2022/10/17 03:54:53;;;;;;;4.65;2.70;;;;;;;14.72;83.31;101133.41;4185060;28;20041;-64
2022/10/17 03:56:55;;;;;;;3.22;1.90;;;;;;;14.67;82.81;101130.75;4194616;28;20041;-63
2022/10/17 03:58:58;;;;;;;3.75;2.47;;;;;;;14.70;83.28;101128.16;4195210;28;20040;-64
2022/10/17 04:01:04;;;;;;;4.47;2.63;;;;;;;14.74;82.50;101140.41;4178290;28;20094;-64
2022/10/17 04:03:07;;;;;;;3.40;2.13;;;;;;;14.74;82.43;101136.94;4187467;28;20103;-63
2022/10/17 04:05:09;;;;;;;4.97;2.75;;;;;;;14.76;82.38;101137.81;4181782;28;20052;-63
2022/10/17 04:07:12;;;;;;;5.05;2.40;;;;;;;14.76;82.34;101143.03;4182597;28;20048;-63
2022/10/17 04:09:18;;;;;;;5.93;3.38;;;;;;;14.74;82.50;101150.88;4185491;28;20041;-63
2022/10/17 04:11:32;;;;;;;5.70;3.13;;;;;;;14.74;82.50;101144.78;4182812;28;20054;-64
2022/10/17 04:13:37;;;;;;;5.75;2.58;;;;;;;14.75;82.92;101143.94;4182167;28;20041;-64
2022/10/17 04:15:41;;;;;;;6.47;3.13;;;;;;;14.74;82.66;101147.41;4187200;28;20041;-64
2022/10/17 04:17:44;;;;;;;4.18;2.50;;;;;;;14.73;82.28;101149.13;4184384;28;20041;-64
2022/10/17 04:19:46;;;;;;;3.55;2.40;;;;;;;14.71;82.27;101148.25;4187038;28;20041;-64
2022/10/17 04:21:51;;;;;;;4.88;2.78;;;;;;;14.68;81.89;101150.84;4178863;28;20041;-64
2022/10/17 04:23:57;;;;;;;5.60;2.90;;;;;;;14.71;82.31;101153.47;4177120;28;20049;-64
2022/10/17 04:26:16;;;;;;;5.95;3.53;;;;;;;14.74;82.33;101150.03;4178807;28;20048;-64
2022/10/17 04:28:20;;;;;;;6.60;3.15;;;;;;;14.78;82.71;101150.06;4178777;28;20041;-64
2022/10/17 04:30:23;;;;;;;5.75;3.38;;;;;;;14.80;82.36;101144.84;4180721;28;20048;-64
2022/10/17 04:32:26;;;;;;;5.55;3.08;;;;;;;14.78;81.91;101152.66;4190220;28;20380;-64
2022/10/17 04:34:37;;;;;;;7.05;3.22;;;;;;;14.77;82.91;101144.81;4195837;28;20079;-64
2022/10/17 04:36:40;;;;;;;9.43;3.45;;;;;;;14.77;82.51;101144.81;4198280;28;20036;-64
2022/10/17 04:38:43;;;;;;;9.18;4.00;;;;;;;14.79;82.72;101143.06;4198207;28;20071;-64
2022/10/17 04:40:46;;;;;;;6.97;3.47;;;;;;;14.78;82.56;101151.81;4198169;28;20470;-64
2022/10/17 04:42:50;;;;;;;7.07;3.33;;;;;;;14.79;82.75;101150.91;4198160;28;20037;-64
2022/10/17 04:44:57;;;;;;;12.18;3.95;;;;;;;14.76;82.94;101148.28;4197317;28;20041;-64
2022/10/17 04:47:01;;;;;;;6.03;3.97;;;;;;;14.77;82.30;101155.28;4192119;28;20033;-63
2022/10/17 04:49:04;;;;;;;7.45;3.92;;;;;;;14.76;82.01;101150.91;4191842;28;20040;-63
2022/10/17 04:51:11;;;;;;;6.93;3.42;;;;;;;14.72;82.79;101154.34;4189279;28;20061;-64
2022/10/17 04:53:24;;;;;;;11.25;4.18;;;;;;;14.69;82.34;101157.84;4184027;28;20565;-63
2022/10/17 04:55:27;;;;;;;8.40;3.88;;;;;;;14.66;82.30;101158.69;4164759;28;20045;-64
2022/10/17 04:57:30;;;;;;;9.50;4.13;;;;;;;14.67;81.51;101164.78;4181415;28;20037;-63
2022/10/17 04:59:42;;;;;;;11.32;4.18;;;;;;;14.64;82.16;101170.88;4164787;28;20176;-64
2022/10/17 05:02:18;;;;;;;12.25;4.72;;;;;;;14.60;81.96;101166.47;4177894;28;20049;-64
2022/10/17 05:04:22;;;;;;;7.72;3.47;;;;;;;14.60;81.40;101170.78;4182151;28;20393;-64
2022/10/17 05:06:28;;;;;;;7.47;4.28;;;;;;;14.58;81.76;101165.53;4189360;28;20029;-63
2022/10/17 05:08:49;;;;;;;13.38;5.07;;;;;;;14.56;82.16;101167.28;4182418;28;20491;-63
2022/10/17 05:10:53;;;;;;;;;;;;;;;14.43;81.69;101160.19;4181689;28;20445;-63
2022/10/17 05:12:56;;;;;;;9.15;3.85;;;;;;;14.47;81.65;101168.06;4182233;28;19921;-63
2022/10/17 05:15:03;;;;;;;8.25;3.35;;;;;;;14.50;81.74;101169.84;4180403;28;20045;-64
2022/10/17 05:17:06;;;;;;;7.53;3.88;;;;;;;14.50;81.83;101167.25;4180992;28;20056;-64
2022/10/17 05:19:11;;;;;;;6.63;3.20;;;;;;;14.48;81.95;101180.31;4184996;28;20044;-63
2022/10/17 05:21:20;;;;;;;20.30;4.47;;;;;;;14.47;81.18;101169.78;4193323;28;20063;-63
2022/10/17 05:23:23;;;;;;;11.55;4.45;;;;;;;14.48;81.29;101166.31;4180153;28;20061;-63
2022/10/17 05:25:26;;;;;;;9.02;4.50;;;;;;;14.50;81.60;101156.78;4164437;28;20103;-64
2022/10/17 05:27:30;;;;;;;11.32;4.38;;;;;;;14.48;81.07;101155.84;4181149;28;20441;-63
2022/10/17 05:29:34;;;;;;;12.50;3.50;;;;;;;14.49;81.52;101155.88;4182059;28;20037;-63
2022/10/17 05:31:47;;;;;;;;;;;;;;;14.28;81.92;101161.78;4181348;28;20048;-63
2022/10/17 05:33:50;;;;;;;10.35;4.00;;;;;;;14.31;81.88;101171.41;4180966;28;19944;-63
2022/10/17 05:35:54;;;;;;;7.15;3.20;;;;;;;14.41;81.32;101168.03;4197292;28;20037;-64
2022/10/17 05:37:58;;;;;;;18.42;4.20;;;;;;;14.34;81.80;101165.31;4197303;28;20044;-63
2022/10/17 05:40:02;;;;;;;8.45;3.80;;;;;;;14.30;82.45;101165.28;4197233;28;20028;-63
2022/10/17 05:42:07;;;;;;;9.82;3.03;;;;;;;14.30;81.90;101177.50;4197203;28;20386;-63
2022/10/17 05:44:10;;;;;;;6.43;3.20;;;;;;;14.26;82.24;101178.31;4179750;28;20048;-63
2022/10/17 05:46:17;;;;;;;13.15;4.35;;;;;;;14.25;82.09;101182.69;4197073;28;20114;-63
2022/10/17 05:48:20;;;;;;;13.02;4.30;;;;;;;14.27;81.95;101180.94;4191821;28;20064;-63
2022/10/17 05:50:24;;;;;;;9.45;4.05;;;;;;;14.32;82.04;101184.50;4189848;28;20040;-63
2022/10/17 05:52:48;;;;;;;8.95;3.20;;;;;;;14.31;82.11;101182.75;4180601;28;20453;-63
2022/10/17 05:54:51;;;;;;;9.88;3.35;;;;;;;14.29;82.12;101189.72;4179772;28;20064;-63
2022/10/17 05:56:55;;;;;;;7.55;3.60;;;;;;;14.29;81.86;101189.72;4181434;28;20029;-63
2022/10/17 05:59:02;;;;;;;8.63;2.78;;;;;;;14.30;82.38;101196.66;4196921;28;20522;-63
2022/10/17 06:01:24;;;;;;;6.30;2.72;;;;;;;14.31;81.99;101194.94;4180349;28;20045;-63
2022/10/17 06:03:28;;;;;;;9.40;2.90;;;;;;;14.23;81.90;101194.84;4170235;28;20149;-64
2022/10/17 06:05:31;;;;;;;7.85;3.30;;;;;;;14.23;82.94;101204.44;4165665;28;20046;-63
2022/10/17 06:07:35;;;;;;;11.43;4.30;;;;;;;14.30;82.22;101199.28;4163600;28;20175;-64
2022/10/17 06:09:40;;;;;;;5.57;2.78;;;;;;;14.26;82.16;101202.72;4180279;28;20068;-63
2022/10/17 06:11:43;;;;;;;3.80;2.58;;;;;;;14.23;82.55;101202.69;4181361;28;20033;-63
2022/10/17 06:13:47;;;;;;;9.52;3.95;;;;;;;14.25;81.80;101198.38;4162864;28;20049;-63
2022/10/17 06:15:56;;;;;;;6.90;2.92;;;;;;;14.28;82.60;101205.34;4180219;28;20044;-63
2022/10/17 06:17:59;;;;;;;7.75;3.33;;;;;;;14.26;82.41;101200.09;4188507;28;20472;-63
2022/10/17 06:20:01;;;;;;;8.95;3.28;;;;;;;14.29;82.80;101212.34;4189964;28;20445;-64
2022/10/17 06:22:04;;;;;;;7.28;3.50;;;;;;;14.34;83.16;101210.66;4196646;28;20115;-64
2022/10/17 06:24:07;;;;;;;5.85;3.10;;;;;;;14.39;82.02;101206.34;4195675;28;20040;-63
2022/10/17 06:26:13;;;;;;;5.10;2.58;;;;;;;14.38;83.00;101206.34;4197692;28;20048;-64
2022/10/17 06:28:16;;;;;;;5.57;3.08;;;;;;;14.36;82.78;101210.69;4196423;28;20035;-63
2022/10/17 06:30:19;;;;;;;8.82;3.72;;;;;;;14.40;82.88;101218.56;4196488;28;20045;-63
2022/10/17 06:32:22;;;;;;;6.18;2.75;;;;;;;14.43;82.36;101222.97;4190896;28;20044;-64
2022/10/17 06:34:25;;;;;;;5.50;2.65;;;;;;;14.46;82.56;101223.00;4190402;28;20048;-64
2022/10/17 06:36:29;;;;;;;5.03;3.08;;;;;;;14.47;82.70;101225.63;4179824;28;20045;-64
2022/10/17 06:38:32;;;;;;;6.60;3.10;;;;;;;14.51;81.88;101225.66;4179797;28;20560;-64
2022/10/17 06:40:35;;;;;;;6.18;3.58;;;;;;;14.55;82.53;101235.31;4179722;28;20176;-63
2022/10/17 06:42:40;;;;;;;4.75;2.88;;;;;;;14.59;81.74;101235.34;4179847;28;20578;-64
2022/10/17 06:44:57;;;;;;;6.50;3.10;;;;;;;14.61;82.36;101237.97;4180180;28;20041;-64
2022/10/17 06:47:12;;;;;;;7.23;3.00;;;;;;;14.62;82.25;101235.41;4171384;28;20037;-63
2022/10/17 06:49:19;;;;;;;8.48;3.00;;;;;;;14.65;81.80;101242.41;4183759;28;20037;-64
2022/10/17 06:51:47;;;;;;;6.22;3.65;;;;;;;14.70;82.09;101251.16;4179508;28;20045;-64
2022/10/17 06:53:53;;;;;;;5.30;3.25;;;;;;;14.75;81.80;101246.00;4178830;28;20515;-64
2022/10/17 06:56:28;;;;;;;5.45;3.58;;;;;;;14.75;81.71;101253.88;4174752;28;20522;-63
2022/10/17 06:58:46;;;;;;;8.25;3.55;;;;;;;14.79;82.20;101247.78;4162997;28;20041;-63
2022/10/17 07:01:07;;;;;;;4.40;2.83;;;;;;;14.76;81.85;101245.13;4181362;28;20203;-64
2022/10/17 07:03:15;;;;;;;5.60;3.22;;;;;;;14.76;82.25;101255.59;4191542;28;20407;-64
2022/10/17 07:05:18;;;;;;;9.02;3.33;;;;;;;14.80;81.98;101253.00;4162879;28;20052;-63
2022/10/17 07:07:21;;;;;;;10.43;3.17;;;;;;;14.83;81.81;101255.69;4179350;28;20072;-64
2022/10/17 07:09:25;;;;;;;6.30;3.20;;;;;;;14.88;81.84;101258.34;4179489;28;20055;-63
2022/10/17 07:11:28;;;;;;;6.30;2.97;;;;;;;14.86;82.22;101251.34;4179369;28;20051;-64
2022/10/17 07:13:31;;;;;;;8.73;3.10;;;;;;;14.82;81.78;101264.41;4179763;28;20048;-64
2022/10/17 07:15:42;;;;;;;4.80;2.88;;;;;;;14.79;82.76;101268.72;4182017;28;20350;-64
2022/10/17 07:17:48;;;;;;;7.90;2.97;;;;;;;14.84;82.31;101274.88;4187557;28;20482;-64
2022/10/17 07:19:51;;;;;;;4.63;2.47;;;;;;;14.89;82.00;101273.16;4162867;28;20434;-64
2022/10/17 07:21:54;;;;;;;6.50;2.83;;;;;;;14.99;81.75;101271.53;4179349;28;20045;-63
2022/10/17 07:23:57;;;;;;;5.93;2.72;;;;;;;15.02;82.40;101271.56;4178470;28;20080;-63
2022/10/17 07:26:01;;;;;;;4.03;2.50;;;;;;;15.07;81.66;101276.81;4179345;28;20052;-63
2022/10/17 07:28:04;;;;;;;6.50;3.00;;;;;;;15.08;82.48;101271.59;4179288;28;20052;-63
2022/10/17 07:30:09;;;;;;;9.13;3.17;;;;;;;15.11;82.15;101270.75;4184711;28;20040;-63
2022/10/17 07:32:15;;;;;;;5.38;3.15;;;;;;;15.14;81.89;101281.25;4178602;28;20041;-63
2022/10/17 07:34:18;;;;;;;5.45;2.72;;;;;;;15.21;82.49;101277.81;4187705;28;20029;-64
2022/10/17 07:36:21;;;;;;;7.78;2.63;;;;;;;15.30;82.15;101285.78;4179014;28;20045;-63
2022/10/17 07:38:24;;;;;;;3.13;2.53;;;;;;;15.35;81.25;101286.66;4187385;28;20028;-64
2022/10/17 07:40:27;;;;;;;5.25;2.47;;;;;;;15.33;81.51;101293.66;4195661;28;20040;-63
2022/10/17 07:42:30;;;;;;;7.00;3.25;;;;;;;15.36;81.88;101296.28;4195854;28;20037;-63
2022/10/17 07:44:34;;;;;;;8.07;2.72;;;;;;;15.44;81.47;101295.47;4194935;28;20045;-63
2022/10/17 07:46:37;;;;;;;8.73;2.85;;;;;;;15.52;81.37;101301.63;4195019;28;20154;-63
2022/10/17 07:48:41;;;;;;;6.10;2.85;;;;;;;15.47;80.92;101306.84;4186530;28;20036;-63
2022/10/17 07:50:44;;;;;;;6.18;3.00;;;;;;;15.51;80.78;101292.03;4187787;28;20045;-63
2022/10/17 07:52:47;;;;;;;5.75;2.80;;;;;;;15.62;80.83;101297.34;4196673;28;20048;-63
2022/10/17 07:54:50;;;;;;;4.68;2.83;;;;;;;15.65;80.52;101305.22;4196073;28;20445;-63
2022/10/17 07:56:53;;;;;;;8.00;2.72;;;;;;;15.67;81.02;101301.75;4194015;28;20106;-63
2022/10/17 07:58:57;;;;;;;7.65;2.58;;;;;;;15.67;81.18;101303.50;4177948;28;20041;-63
2022/10/17 08:01:04;;;;;;;5.25;2.70;;;;;;;15.73;80.78;101308.78;4180242;28;20514;-63
2022/10/17 08:03:11;;;;;;;5.53;3.65;;;;;;;15.77;80.82;101304.44;4179763;28;20037;-63
2022/10/17 08:05:15;;;;;;;4.63;2.50;;;;;;;15.83;80.36;101308.00;4181430;28;20059;-63
2022/10/17 08:07:18;;;;;;;6.10;3.05;;;;;;;15.91;80.63;101312.44;4183325;28;20103;-63
2022/10/17 08:09:27;;;;;;;4.47;2.70;;;;;;;15.98;80.30;101315.09;4183295;28;20491;-63
2022/10/17 08:11:29;;;;;;;10.38;2.72;;;;;;;16.05;79.50;101316.00;4184023;28;20040;-63
2022/10/17 08:13:33;;;;;;;7.47;2.78;;;;;;;16.09;79.68;101316.88;4191770;28;20048;-63
2022/10/17 08:15:37;;;;;;;4.82;2.80;;;;;;;16.22;79.44;101313.44;4197924;28;20094;-63
2022/10/17 08:17:40;;;;;;;;;;;;;;;16.16;79.59;101318.66;4198903;28;20040;-63
2022/10/17 08:19:42;;;;;;;9.23;3.05;;;;;;;16.20;79.30;101316.06;4199640;28;19921;-63
2022/10/17 08:21:48;;;;;;;4.68;2.63;;;;;;;16.24;79.33;101322.22;4198515;28;20040;-63
2022/10/17 08:23:51;;;;;;;9.15;3.20;;;;;;;16.33;78.55;101322.25;4198896;28;20040;-63
2022/10/17 08:25:54;;;;;;;6.57;2.45;;;;;;;16.38;78.40;101317.91;4197352;28;20049;-63
2022/10/17 08:27:57;;;;;;;6.03;2.78;;;;;;;16.48;78.32;101313.56;4191732;28;20517;-63
2022/10/17 08:30:00;;;;;;;6.67;2.90;;;;;;;16.52;78.28;101317.09;4189904;28;20090;-63
2022/10/17 08:32:03;;;;;;;6.47;2.70;;;;;;;16.56;77.94;101317.09;4198417;28;20106;-63
2022/10/17 08:34:10;;;;;;;5.68;2.30;;;;;;;16.64;77.80;101319.72;4198763;28;20036;-63
2022/10/17 08:36:15;;;;;;;5.68;2.70;;;;;;;16.70;77.72;101311.88;4199544;28;20481;-63
2022/10/17 08:38:19;;;;;;;11.40;3.38;;;;;;;16.81;77.48;101309.28;4199508;28;20086;-63
2022/10/17 08:40:27;;;;;;;10.50;2.80;;;;;;;16.92;77.04;101304.97;4199363;28;20044;-63
2022/10/17 08:42:43;;;;;;;7.88;2.92;;;;;;;17.02;76.60;101308.47;4175364;28;20034;-63
2022/10/17 08:44:57;;;;;;;8.15;2.63;;;;;;;16.99;76.90;101326.00;4190156;28;20033;-63
2022/10/17 08:47:04;;;;;;;8.95;3.03;;;;;;;17.06;76.89;101320.72;4183135;28;20131;-63
2022/10/17 08:49:14;;;;;;;15.98;2.90;;;;;;;17.08;76.38;101321.63;4182703;28;20449;-63
2022/10/17 08:51:22;;;;;;;5.05;2.38;;;;;;;17.10;76.32;101322.50;4182708;28;20040;-63
2022/10/17 08:53:32;;;;;;;4.82;2.60;;;;;;;17.10;75.34;101317.25;4181857;28;20036;-63
2022/10/17 08:55:38;;;;;;;6.32;2.50;;;;;;;17.19;75.33;101303.22;4164958;28;20041;-63
2022/10/17 08:57:48;;;;;;;5.10;2.17;;;;;;;17.26;74.72;101306.75;4195783;28;20041;-63
2022/10/17 08:59:53;;;;;;;9.25;2.70;;;;;;;17.21;74.97;101319.00;4187455;28;20041;-63
2022/10/17 09:02:08;;;;;;;11.15;3.00;;;;;;;17.37;75.67;101315.50;4191647;28;20047;-64
2022/10/17 09:04:26;;;;;;;;;;;;;;;17.23;75.64;101319.88;4198766;28;20063;-63
2022/10/17 09:06:33;;;;;;;5.15;2.90;;;;;;;17.23;75.12;101317.22;4199100;28;19932;-62
2022/10/17 09:08:47;;;;;;;6.50;2.70;;;;;;;17.34;74.10;101317.25;4198916;28;20037;-63
2022/10/17 09:10:56;;;;;;;3.35;2.10;;;;;;;17.52;74.16;101325.16;4198001;28;20550;-63
2022/10/17 09:13:14;;;;;;;4.75;2.75;;;;;;;17.59;73.17;101318.13;4189247;28;20075;-63
2022/10/17 09:15:37;;;;;;;9.80;2.80;;;;;;;17.60;72.97;101323.38;4187118;28;20119;-63
2022/10/17 09:17:50;;;;;;;9.23;2.53;;;;;;;17.60;73.31;101312.84;4188807;28;20044;-63
2022/10/17 09:20:02;;;;;;;8.05;3.15;;;;;;;17.76;73.21;101328.63;4182186;28;20116;-63
2022/10/17 09:22:09;;;;;;;7.13;2.67;;;;;;;17.68;73.65;101328.59;4182247;28;20033;-63
2022/10/17 09:24:18;;;;;;;3.28;2.40;;;;;;;17.72;73.73;101326.88;4181415;28;20446;-64
2022/10/17 09:26:21;;;;;;;5.25;2.33;;;;;;;17.74;74.14;101335.63;4182139;28;20045;-63
2022/10/17 09:28:28;;;;;;;8.60;3.22;;;;;;;17.86;74.33;101339.97;4182944;28;20056;-63
2022/10/17 09:30:38;;;;;;;5.28;2.97;;;;;;;17.78;73.74;101333.00;4189428;28;20045;-63
2022/10/17 09:32:48;;;;;;;7.68;2.97;;;;;;;17.88;73.37;101327.72;4190257;28;20045;-63
2022/10/17 09:34:52;;;;;;;6.20;2.80;;;;;;;17.89;73.46;101327.72;4179848;28;20076;-64
2022/10/17 09:36:58;;;;;;;6.15;2.63;;;;;;;17.95;73.21;101337.38;4180856;28;20041;-63
2022/10/17 09:39:04;;;;;;;5.13;2.60;;;;;;;18.03;72.81;101322.44;4183008;28;20064;-63
2022/10/17 09:41:16;;;;;;;4.85;2.63;;;;;;;18.12;72.42;101330.31;4197069;28;20052;-63
2022/10/17 09:43:39;;;;;;;7.88;3.08;;;;;;;18.19;71.63;101328.53;4197669;28;20040;-64
2022/10/17 09:45:50;;;;;;;5.88;2.63;;;;;;;18.24;71.11;101325.91;4198462;28;20114;-63
2022/10/17 09:48:01;;;;;;;7.05;2.60;;;;;;;18.39;71.12;101330.22;4180612;28;20040;-64
2022/10/17 09:50:22;;;;;;;5.57;2.80;;;;;;;18.42;71.18;101320.53;4198203;28;20482;-64